Fort Vermillion, Canada
Current Conditions -  °F | °C
As of 2:00 AM on Monday 20 Oct 2014 (Local Time) from CYOJ Reporting Station
Moderate Fog Moderate Fog  
Wind Chill: 36°   Ceiling: 200
Heat Index: 41°   Visibility: 0.5mi
Dew Point: 39°   Wind: 7mph
Humidity: 93%   Direction: 150°SSE
Pressure: 29.47"   Gusts: NA
Location:  58.4°N, 116°W
Report Text: CYOJ 200800Z AUTO 15006KT 1/2SM FG VV002 05/04 A2947 RMK SLP996
Loading
Personal Weather Stations






























Interactive Weather Map
Tropical Storm Tracking
New forecast layout! Learn more

10-Day Weather Forecast

Advertisements
Track Severe Weather on mobile